Sbi Flamenco — V7JA5 — position and weather

sailwx.info

Track history (hours):
 
Tides and Currents Weather Stations Pressure Air Temp Water Temp Dewpoint Dewpoint Depression Visibility Wind Speed Wind Dir Waves Ship Positions

Sbi Flamenco

Last reported at 2018-Jan-03 11:08 UTC. Time now 2018-Jan-19 01:50 UTC.
Position N 25°19' W 079°37'.
Warning: this ship's position is 15 days out of date.

Length 229 m; draft 7.6 m.

Type: Cargo ship. MMSI: 538006022.

Date/timePositionNaut miles runAvg speedWind from/ knotsBaromVisibWave heightAir tempDewpointWater temp
2018-Jan-03 11:08N 25°19' W 079°37'1 9.4
2018-Jan-03 11:00N 25°20' W 079°37'5 9.4
2018-Jan-03 10:30N 25°25' W 079°36'5 9.3
2018-Jan-03 10:00N 25°30' W 079°35'5 9.2
2018-Jan-03 09:30N 25°34' W 079°34'5 9.3
2018-Jan-03 09:00N 25°39' W 079°33'5 9.4
2018-Jan-03 08:30N 25°43' W 079°32'5 9.5
2018-Jan-03 08:00N 25°48' W 079°31'5 9.5
2018-Jan-03 07:30N 25°53' W 079°30'5 9.4
2018-Jan-03 07:00N 25°57' W 079°29'5 9.3
2018-Jan-03 06:30N 26°02' W 079°28'5 9.3
2018-Jan-03 06:00N 26°06' W 079°27'5 9.1
2018-Jan-03 05:30N 26°10' W 079°24'  
Track history (hours):
 
Tides and Currents Weather Stations Pressure Air Temp Water Temp Dewpoint Dewpoint Depression Visibility Wind Speed Wind Dir Waves Ship Positions

Sbi Flamenco

Last reported at 2018-Jan-03 11:08 UTC. Time now 2018-Jan-19 01:50 UTC.
Position N 25°19' W 079°37'.
Warning: this ship's position is 15 days out of date.

Length 229 m; draft 7.6 m.

Type: Cargo ship. MMSI: 538006022.

Date/timePositionNaut miles runAvg speedWind from/ knotsBaromVisibWave heightAir tempDewpointWater temp
2018-Jan-03 11:08N 25°19' W 079°37'1 9.4
2018-Jan-03 11:00N 25°20' W 079°37'5 9.4
2018-Jan-03 10:30N 25°25' W 079°36'5 9.3
2018-Jan-03 10:00N 25°30' W 079°35'5 9.2
2018-Jan-03 09:30N 25°34' W 079°34'5 9.3
2018-Jan-03 09:00N 25°39' W 079°33'5 9.4
2018-Jan-03 08:30N 25°43' W 079°32'5 9.5
2018-Jan-03 08:00N 25°48' W 079°31'5 9.5
2018-Jan-03 07:30N 25°53' W 079°30'5 9.4
2018-Jan-03 07:00N 25°57' W 079°29'5 9.3
2018-Jan-03 06:30N 26°02' W 079°28'5 9.3
2018-Jan-03 06:00N 26°06' W 079°27'5 9.1
2018-Jan-03 05:30N 26°10' W 079°24'  

Dump ship's entire track history